sensor_id;sensor_type;location;lat;lon;timestamp;P1;durP1;ratioP1;P2;durP2;ratioP2
16543;SDS011;8384;47.996;7.786;2023-12-20T00:01:46;1.20;;;1.00;;
16543;SDS011;8384;47.996;7.786;2023-12-20T00:04:11;1.10;;;1.00;;
16543;SDS011;8384;47.996;7.786;2023-12-20T00:06:37;1.93;;;1.00;;
16543;SDS011;8384;47.996;7.786;2023-12-20T00:09:02;1.23;;;0.80;;
16543;SDS011;8384;47.996;7.786;2023-12-20T00:11:27;1.70;;;1.10;;
16543;SDS011;8384;47.996;7.786;2023-12-20T00:13:53;1.70;;;1.20;;
16543;SDS011;8384;47.996;7.786;2023-12-20T00:16:18;1.27;;;1.17;;
16543;SDS011;8384;47.996;7.786;2023-12-20T00:18:43;1.97;;;1.10;;
16543;SDS011;8384;47.996;7.786;2023-12-20T00:21:09;1.20;;;1.10;;
16543;SDS011;8384;47.996;7.786;2023-12-20T00:23:34;1.27;;;1.17;;
16543;SDS011;8384;47.996;7.786;2023-12-20T00:25:59;1.17;;;1.07;;
16543;SDS011;8384;47.996;7.786;2023-12-20T00:28:26;1.30;;;1.10;;
16543;SDS011;8384;47.996;7.786;2023-12-20T00:30:52;1.10;;;1.03;;
16543;SDS011;8384;47.996;7.786;2023-12-20T00:33:17;2.60;;;1.27;;
16543;SDS011;8384;47.996;7.786;2023-12-20T00:35:42;1.23;;;1.10;;
16543;SDS011;8384;47.996;7.786;2023-12-20T00:38:08;1.60;;;1.23;;
16543;SDS011;8384;47.996;7.786;2023-12-20T00:40:34;1.20;;;1.10;;
16543;SDS011;8384;47.996;7.786;2023-12-20T00:42:59;1.47;;;1.27;;
16543;SDS011;8384;47.996;7.786;2023-12-20T00:45:24;1.60;;;1.50;;
16543;SDS011;8384;47.996;7.786;2023-12-20T00:47:50;1.47;;;1.33;;
16543;SDS011;8384;47.996;7.786;2023-12-20T00:50:15;1.30;;;1.20;;
16543;SDS011;8384;47.996;7.786;2023-12-20T00:52:41;2.60;;;1.90;;
16543;SDS011;8384;47.996;7.786;2023-12-20T00:55:06;2.03;;;1.73;;
16543;SDS011;8384;47.996;7.786;2023-12-20T00:57:31;3.07;;;1.70;;
16543;SDS011;8384;47.996;7.786;2023-12-20T00:59:57;2.10;;;1.60;;
16543;SDS011;8384;47.996;7.786;2023-12-20T01:02:22;1.80;;;1.60;;
16543;SDS011;8384;47.996;7.786;2023-12-20T01:04:47;2.07;;;1.80;;
16543;SDS011;8384;47.996;7.786;2023-12-20T01:07:12;2.00;;;1.70;;
16543;SDS011;8384;47.996;7.786;2023-12-20T01:09:38;2.90;;;1.80;;
16543;SDS011;8384;47.996;7.786;2023-12-20T01:12:03;1.83;;;1.73;;
16543;SDS011;8384;47.996;7.786;2023-12-20T01:14:29;1.60;;;1.30;;
16543;SDS011;8384;47.996;7.786;2023-12-20T01:16:54;4.67;;;1.40;;
16543;SDS011;8384;47.996;7.786;2023-12-20T01:19:19;2.73;;;1.60;;
16543;SDS011;8384;47.996;7.786;2023-12-20T01:21:44;2.13;;;1.83;;
16543;SDS011;8384;47.996;7.786;2023-12-20T01:24:10;1.60;;;1.47;;
16543;SDS011;8384;47.996;7.786;2023-12-20T01:26:35;1.70;;;1.60;;
16543;SDS011;8384;47.996;7.786;2023-12-20T01:29:01;1.83;;;1.63;;
16543;SDS011;8384;47.996;7.786;2023-12-20T01:31:26;2.23;;;1.60;;
16543;SDS011;8384;47.996;7.786;2023-12-20T01:33:52;1.50;;;1.40;;
16543;SDS011;8384;47.996;7.786;2023-12-20T01:36:17;1.57;;;1.47;;
16543;SDS011;8384;47.996;7.786;2023-12-20T01:38:43;1.60;;;1.43;;
16543;SDS011;8384;47.996;7.786;2023-12-20T01:41:08;1.30;;;1.20;;
16543;SDS011;8384;47.996;7.786;2023-12-20T01:43:33;2.40;;;1.40;;
16543;SDS011;8384;47.996;7.786;2023-12-20T01:45:58;1.77;;;1.27;;
16543;SDS011;8384;47.996;7.786;2023-12-20T01:48:25;1.60;;;1.50;;
16543;SDS011;8384;47.996;7.786;2023-12-20T01:50:51;1.27;;;1.17;;
16543;SDS011;8384;47.996;7.786;2023-12-20T01:53:17;1.53;;;1.27;;
16543;SDS011;8384;47.996;7.786;2023-12-20T01:55:46;1.63;;;1.30;;
16543;SDS011;8384;47.996;7.786;2023-12-20T01:58:14;1.40;;;1.23;;
16543;SDS011;8384;47.996;7.786;2023-12-20T02:00:40;0.93;;;0.93;;
16543;SDS011;8384;47.996;7.786;2023-12-20T02:03:05;1.30;;;1.10;;
16543;SDS011;8384;47.996;7.786;2023-12-20T02:05:31;1.50;;;1.20;;
16543;SDS011;8384;47.996;7.786;2023-12-20T02:07:58;0.97;;;0.97;;
16543;SDS011;8384;47.996;7.786;2023-12-20T02:10:24;0.93;;;0.90;;
16543;SDS011;8384;47.996;7.786;2023-12-20T02:12:50;0.90;;;0.90;;
16543;SDS011;8384;47.996;7.786;2023-12-20T02:15:15;1.10;;;1.00;;
16543;SDS011;8384;47.996;7.786;2023-12-20T02:17:41;2.17;;;1.00;;
16543;SDS011;8384;47.996;7.786;2023-12-20T02:20:06;2.03;;;0.90;;
16543;SDS011;8384;47.996;7.786;2023-12-20T02:22:32;1.23;;;0.87;;
16543;SDS011;8384;47.996;7.786;2023-12-20T02:24:57;1.67;;;0.80;;
16543;SDS011;8384;47.996;7.786;2023-12-20T02:27:23;1.20;;;1.10;;
16543;SDS011;8384;47.996;7.786;2023-12-20T02:29:48;0.80;;;0.80;;
16543;SDS011;8384;47.996;7.786;2023-12-20T02:32:14;1.40;;;1.17;;
16543;SDS011;8384;47.996;7.786;2023-12-20T02:34:41;1.53;;;1.00;;
16543;SDS011;8384;47.996;7.786;2023-12-20T02:37:06;1.27;;;0.90;;
16543;SDS011;8384;47.996;7.786;2023-12-20T02:39:31;1.67;;;1.00;;
16543;SDS011;8384;47.996;7.786;2023-12-20T02:41:56;1.13;;;1.10;;
16543;SDS011;8384;47.996;7.786;2023-12-20T02:44:22;1.30;;;1.20;;
16543;SDS011;8384;47.996;7.786;2023-12-20T02:46:47;1.50;;;1.30;;
16543;SDS011;8384;47.996;7.786;2023-12-20T02:49:12;1.27;;;1.20;;
16543;SDS011;8384;47.996;7.786;2023-12-20T02:51:37;1.80;;;1.53;;
16543;SDS011;8384;47.996;7.786;2023-12-20T02:54:03;1.60;;;1.50;;
16543;SDS011;8384;47.996;7.786;2023-12-20T02:56:29;1.57;;;1.47;;
16543;SDS011;8384;47.996;7.786;2023-12-20T02:58:54;1.80;;;1.70;;
16543;SDS011;8384;47.996;7.786;2023-12-20T03:01:19;1.40;;;1.30;;
16543;SDS011;8384;47.996;7.786;2023-12-20T03:03:45;1.70;;;1.60;;
16543;SDS011;8384;47.996;7.786;2023-12-20T03:06:10;1.50;;;1.30;;
16543;SDS011;8384;47.996;7.786;2023-12-20T03:08:35;1.60;;;1.50;;
16543;SDS011;8384;47.996;7.786;2023-12-20T03:11:01;1.53;;;1.40;;
16543;SDS011;8384;47.996;7.786;2023-12-20T03:13:26;1.33;;;1.23;;
16543;SDS011;8384;47.996;7.786;2023-12-20T03:15:51;1.47;;;1.37;;
16543;SDS011;8384;47.996;7.786;2023-12-20T03:18:16;1.50;;;1.30;;
16543;SDS011;8384;47.996;7.786;2023-12-20T03:20:43;2.00;;;1.43;;
16543;SDS011;8384;47.996;7.786;2023-12-20T03:23:08;1.20;;;1.10;;
16543;SDS011;8384;47.996;7.786;2023-12-20T03:25:34;1.60;;;1.40;;
16543;SDS011;8384;47.996;7.786;2023-12-20T03:27:59;1.37;;;1.27;;
16543;SDS011;8384;47.996;7.786;2023-12-20T03:30:25;1.80;;;1.30;;
16543;SDS011;8384;47.996;7.786;2023-12-20T03:32:50;1.60;;;1.10;;
16543;SDS011;8384;47.996;7.786;2023-12-20T03:35:15;2.27;;;1.40;;
16543;SDS011;8384;47.996;7.786;2023-12-20T03:37:41;1.30;;;1.20;;
16543;SDS011;8384;47.996;7.786;2023-12-20T03:40:06;1.40;;;1.30;;
16543;SDS011;8384;47.996;7.786;2023-12-20T03:42:32;1.40;;;1.20;;
16543;SDS011;8384;47.996;7.786;2023-12-20T03:44:57;1.23;;;1.13;;
16543;SDS011;8384;47.996;7.786;2023-12-20T03:47:22;1.13;;;1.03;;
16543;SDS011;8384;47.996;7.786;2023-12-20T03:49:47;1.93;;;1.33;;
16543;SDS011;8384;47.996;7.786;2023-12-20T03:52:13;1.17;;;1.10;;
16543;SDS011;8384;47.996;7.786;2023-12-20T03:54:38;1.23;;;1.13;;
16543;SDS011;8384;47.996;7.786;2023-12-20T03:57:04;1.17;;;1.07;;
16543;SDS011;8384;47.996;7.786;2023-12-20T03:59:29;1.13;;;1.03;;
16543;SDS011;8384;47.996;7.786;2023-12-20T04:01:55;1.30;;;1.20;;
16543;SDS011;8384;47.996;7.786;2023-12-20T04:04:20;0.90;;;0.90;;
16543;SDS011;8384;47.996;7.786;2023-12-20T04:06:45;1.13;;;1.07;;
16543;SDS011;8384;47.996;7.786;2023-12-20T04:09:11;1.23;;;1.13;;
16543;SDS011;8384;47.996;7.786;2023-12-20T04:11:36;1.43;;;1.10;;
16543;SDS011;8384;47.996;7.786;2023-12-20T04:14:02;0.97;;;0.97;;
16543;SDS011;8384;47.996;7.786;2023-12-20T04:16:27;1.07;;;1.00;;
16543;SDS011;8384;47.996;7.786;2023-12-20T04:18:52;0.90;;;0.90;;
16543;SDS011;8384;47.996;7.786;2023-12-20T04:21:18;0.80;;;0.80;;
16543;SDS011;8384;47.996;7.786;2023-12-20T04:23:43;1.00;;;0.90;;
16543;SDS011;8384;47.996;7.786;2023-12-20T04:26:08;0.80;;;0.80;;
16543;SDS011;8384;47.996;7.786;2023-12-20T04:28:34;0.70;;;0.70;;
16543;SDS011;8384;47.996;7.786;2023-12-20T04:30:59;1.00;;;0.90;;
16543;SDS011;8384;47.996;7.786;2023-12-20T04:33:24;0.83;;;0.80;;
16543;SDS011;8384;47.996;7.786;2023-12-20T04:35:50;0.80;;;0.80;;
16543;SDS011;8384;47.996;7.786;2023-12-20T04:38:15;0.87;;;0.77;;
16543;SDS011;8384;47.996;7.786;2023-12-20T04:40:40;0.70;;;0.70;;
16543;SDS011;8384;47.996;7.786;2023-12-20T04:43:06;0.80;;;0.80;;
16543;SDS011;8384;47.996;7.786;2023-12-20T04:45:32;0.90;;;0.70;;
16543;SDS011;8384;47.996;7.786;2023-12-20T04:47:57;0.97;;;0.90;;
16543;SDS011;8384;47.996;7.786;2023-12-20T04:50:22;0.70;;;0.70;;
16543;SDS011;8384;47.996;7.786;2023-12-20T04:52:48;0.73;;;0.70;;
16543;SDS011;8384;47.996;7.786;2023-12-20T04:55:13;1.23;;;0.60;;
16543;SDS011;8384;47.996;7.786;2023-12-20T04:57:39;0.63;;;0.60;;
16543;SDS011;8384;47.996;7.786;2023-12-20T05:00:04;0.63;;;0.60;;
16543;SDS011;8384;47.996;7.786;2023-12-20T05:02:30;0.97;;;0.60;;
16543;SDS011;8384;47.996;7.786;2023-12-20T05:04:56;0.70;;;0.70;;
16543;SDS011;8384;47.996;7.786;2023-12-20T05:07:21;0.63;;;0.63;;
16543;SDS011;8384;47.996;7.786;2023-12-20T05:09:46;0.60;;;0.60;;
16543;SDS011;8384;47.996;7.786;2023-12-20T05:12:12;0.90;;;0.90;;
16543;SDS011;8384;47.996;7.786;2023-12-20T05:14:37;0.70;;;0.70;;
16543;SDS011;8384;47.996;7.786;2023-12-20T05:17:02;0.90;;;0.70;;
16543;SDS011;8384;47.996;7.786;2023-12-20T05:19:28;0.70;;;0.70;;
16543;SDS011;8384;47.996;7.786;2023-12-20T05:21:53;1.03;;;0.90;;
16543;SDS011;8384;47.996;7.786;2023-12-20T05:24:18;1.07;;;0.97;;
16543;SDS011;8384;47.996;7.786;2023-12-20T05:26:44;0.80;;;0.80;;
16543;SDS011;8384;47.996;7.786;2023-12-20T05:29:09;0.90;;;0.90;;
16543;SDS011;8384;47.996;7.786;2023-12-20T05:31:34;1.13;;;1.03;;
16543;SDS011;8384;47.996;7.786;2023-12-20T05:33:59;0.93;;;0.87;;
16543;SDS011;8384;47.996;7.786;2023-12-20T05:36:25;1.00;;;1.00;;
16543;SDS011;8384;47.996;7.786;2023-12-20T05:38:50;1.20;;;1.10;;
16543;SDS011;8384;47.996;7.786;2023-12-20T05:41:16;0.80;;;0.80;;
16543;SDS011;8384;47.996;7.786;2023-12-20T05:43:41;1.03;;;0.93;;
16543;SDS011;8384;47.996;7.786;2023-12-20T05:46:06;0.70;;;0.70;;
16543;SDS011;8384;47.996;7.786;2023-12-20T05:48:32;0.80;;;0.80;;
16543;SDS011;8384;47.996;7.786;2023-12-20T05:50:57;1.57;;;0.80;;
16543;SDS011;8384;47.996;7.786;2023-12-20T05:53:22;0.77;;;0.77;;
16543;SDS011;8384;47.996;7.786;2023-12-20T05:55:48;0.70;;;0.70;;
16543;SDS011;8384;47.996;7.786;2023-12-20T05:58:13;1.13;;;0.90;;
16543;SDS011;8384;47.996;7.786;2023-12-20T06:00:38;1.00;;;0.90;;
16543;SDS011;8384;47.996;7.786;2023-12-20T06:03:04;0.70;;;0.60;;
16543;SDS011;8384;47.996;7.786;2023-12-20T06:05:30;1.53;;;0.93;;
16543;SDS011;8384;47.996;7.786;2023-12-20T06:07:55;1.27;;;0.90;;
16543;SDS011;8384;47.996;7.786;2023-12-20T06:10:26;0.93;;;0.87;;
16543;SDS011;8384;47.996;7.786;2023-12-20T06:12:51;1.23;;;0.80;;
16543;SDS011;8384;47.996;7.786;2023-12-20T06:15:16;1.10;;;1.00;;
16543;SDS011;8384;47.996;7.786;2023-12-20T06:17:42;1.10;;;0.97;;
16543;SDS011;8384;47.996;7.786;2023-12-20T06:20:07;1.20;;;0.87;;
16543;SDS011;8384;47.996;7.786;2023-12-20T06:22:34;0.70;;;0.70;;
16543;SDS011;8384;47.996;7.786;2023-12-20T06:24:59;0.93;;;0.80;;
16543;SDS011;8384;47.996;7.786;2023-12-20T06:27:25;0.87;;;0.87;;
16543;SDS011;8384;47.996;7.786;2023-12-20T06:29:50;0.90;;;0.80;;
16543;SDS011;8384;47.996;7.786;2023-12-20T06:32:15;2.27;;;0.80;;
16543;SDS011;8384;47.996;7.786;2023-12-20T06:34:41;1.23;;;0.90;;
16543;SDS011;8384;47.996;7.786;2023-12-20T06:37:06;0.80;;;0.80;;
16543;SDS011;8384;47.996;7.786;2023-12-20T06:39:31;0.80;;;0.80;;
16543;SDS011;8384;47.996;7.786;2023-12-20T06:41:58;1.27;;;0.60;;
16543;SDS011;8384;47.996;7.786;2023-12-20T06:44:24;0.80;;;0.80;;
16543;SDS011;8384;47.996;7.786;2023-12-20T06:46:49;0.93;;;0.90;;
16543;SDS011;8384;47.996;7.786;2023-12-20T06:49:14;0.80;;;0.80;;
16543;SDS011;8384;47.996;7.786;2023-12-20T06:51:40;0.70;;;0.70;;
16543;SDS011;8384;47.996;7.786;2023-12-20T06:54:05;0.97;;;0.83;;
16543;SDS011;8384;47.996;7.786;2023-12-20T06:56:30;0.80;;;0.80;;
16543;SDS011;8384;47.996;7.786;2023-12-20T06:58:56;1.20;;;0.93;;
16543;SDS011;8384;47.996;7.786;2023-12-20T07:01:21;0.80;;;0.80;;
16543;SDS011;8384;47.996;7.786;2023-12-20T07:03:47;0.70;;;0.70;;
16543;SDS011;8384;47.996;7.786;2023-12-20T07:06:12;0.90;;;0.80;;
16543;SDS011;8384;47.996;7.786;2023-12-20T07:08:40;0.80;;;0.80;;
16543;SDS011;8384;47.996;7.786;2023-12-20T07:11:05;1.20;;;1.10;;
16543;SDS011;8384;47.996;7.786;2023-12-20T07:13:30;0.87;;;0.87;;
16543;SDS011;8384;47.996;7.786;2023-12-20T07:15:56;1.07;;;0.97;;
16543;SDS011;8384;47.996;7.786;2023-12-20T07:18:21;1.20;;;1.00;;
16543;SDS011;8384;47.996;7.786;2023-12-20T07:20:46;1.30;;;1.20;;
16543;SDS011;8384;47.996;7.786;2023-12-20T07:23:12;2.33;;;1.20;;
16543;SDS011;8384;47.996;7.786;2023-12-20T07:25:37;1.87;;;1.20;;
16543;SDS011;8384;47.996;7.786;2023-12-20T07:28:02;2.10;;;1.20;;
16543;SDS011;8384;47.996;7.786;2023-12-20T07:30:28;1.40;;;1.10;;
16543;SDS011;8384;47.996;7.786;2023-12-20T07:32:53;1.10;;;1.00;;
16543;SDS011;8384;47.996;7.786;2023-12-20T07:35:18;1.30;;;0.90;;
16543;SDS011;8384;47.996;7.786;2023-12-20T07:37:43;1.20;;;1.10;;
16543;SDS011;8384;47.996;7.786;2023-12-20T07:40:09;0.90;;;0.90;;
16543;SDS011;8384;47.996;7.786;2023-12-20T07:42:34;2.03;;;0.83;;
16543;SDS011;8384;47.996;7.786;2023-12-20T07:45:00;0.90;;;0.90;;
16543;SDS011;8384;47.996;7.786;2023-12-20T07:47:25;1.60;;;0.90;;
16543;SDS011;8384;47.996;7.786;2023-12-20T07:49:50;0.90;;;0.90;;
16543;SDS011;8384;47.996;7.786;2023-12-20T07:52:17;1.27;;;1.17;;
16543;SDS011;8384;47.996;7.786;2023-12-20T07:54:43;1.10;;;1.00;;
16543;SDS011;8384;47.996;7.786;2023-12-20T07:57:08;1.77;;;1.27;;
16543;SDS011;8384;47.996;7.786;2023-12-20T07:59:33;1.03;;;1.03;;
16543;SDS011;8384;47.996;7.786;2023-12-20T08:01:58;0.87;;;0.87;;
16543;SDS011;8384;47.996;7.786;2023-12-20T08:04:24;1.53;;;1.40;;
16543;SDS011;8384;47.996;7.786;2023-12-20T08:06:50;1.70;;;1.07;;
16543;SDS011;8384;47.996;7.786;2023-12-20T08:09:15;1.40;;;1.30;;
16543;SDS011;8384;47.996;7.786;2023-12-20T08:11:44;1.30;;;1.00;;
16543;SDS011;8384;47.996;7.786;2023-12-20T08:14:12;1.10;;;1.00;;
16543;SDS011;8384;47.996;7.786;2023-12-20T08:16:38;0.90;;;0.90;;
16543;SDS011;8384;47.996;7.786;2023-12-20T08:19:03;1.10;;;1.00;;
16543;SDS011;8384;47.996;7.786;2023-12-20T08:21:29;1.10;;;1.00;;
16543;SDS011;8384;47.996;7.786;2023-12-20T08:23:54;1.37;;;1.10;;
16543;SDS011;8384;47.996;7.786;2023-12-20T08:26:20;1.20;;;0.97;;
16543;SDS011;8384;47.996;7.786;2023-12-20T08:28:46;2.33;;;0.87;;
16543;SDS011;8384;47.996;7.786;2023-12-20T08:31:15;0.90;;;0.90;;
16543;SDS011;8384;47.996;7.786;2023-12-20T08:33:42;0.87;;;0.87;;
16543;SDS011;8384;47.996;7.786;2023-12-20T08:36:09;1.23;;;1.13;;
16543;SDS011;8384;47.996;7.786;2023-12-20T08:38:34;1.00;;;1.00;;
16543;SDS011;8384;47.996;7.786;2023-12-20T08:40:59;1.37;;;1.27;;
16543;SDS011;8384;47.996;7.786;2023-12-20T08:43:24;1.10;;;1.00;;
16543;SDS011;8384;47.996;7.786;2023-12-20T08:45:50;1.20;;;1.10;;
16543;SDS011;8384;47.996;7.786;2023-12-20T08:48:15;1.10;;;1.00;;
16543;SDS011;8384;47.996;7.786;2023-12-20T08:50:40;1.83;;;1.10;;
16543;SDS011;8384;47.996;7.786;2023-12-20T08:53:06;1.40;;;1.30;;
16543;SDS011;8384;47.996;7.786;2023-12-20T08:55:31;1.20;;;1.10;;
16543;SDS011;8384;47.996;7.786;2023-12-20T08:57:57;1.27;;;1.13;;
16543;SDS011;8384;47.996;7.786;2023-12-20T09:00:22;1.23;;;1.10;;
16543;SDS011;8384;47.996;7.786;2023-12-20T09:02:49;1.20;;;1.10;;
16543;SDS011;8384;47.996;7.786;2023-12-20T09:05:15;1.03;;;0.93;;
16543;SDS011;8384;47.996;7.786;2023-12-20T09:07:40;1.40;;;1.20;;
16543;SDS011;8384;47.996;7.786;2023-12-20T09:10:05;2.30;;;1.27;;
16543;SDS011;8384;47.996;7.786;2023-12-20T09:12:31;1.43;;;1.10;;
16543;SDS011;8384;47.996;7.786;2023-12-20T09:14:56;1.30;;;1.20;;
16543;SDS011;8384;47.996;7.786;2023-12-20T09:17:21;1.30;;;1.20;;
16543;SDS011;8384;47.996;7.786;2023-12-20T09:19:48;1.30;;;1.20;;
16543;SDS011;8384;47.996;7.786;2023-12-20T09:22:13;1.50;;;1.40;;
16543;SDS011;8384;47.996;7.786;2023-12-20T09:24:38;1.50;;;1.27;;
16543;SDS011;8384;47.996;7.786;2023-12-20T09:27:04;2.50;;;1.53;;
16543;SDS011;8384;47.996;7.786;2023-12-20T09:29:30;1.33;;;1.23;;
16543;SDS011;8384;47.996;7.786;2023-12-20T09:31:56;1.60;;;1.50;;
16543;SDS011;8384;47.996;7.786;2023-12-20T09:34:22;2.70;;;2.50;;
16543;SDS011;8384;47.996;7.786;2023-12-20T09:36:48;1.97;;;1.87;;
16543;SDS011;8384;47.996;7.786;2023-12-20T09:39:13;2.07;;;1.93;;
16543;SDS011;8384;47.996;7.786;2023-12-20T09:41:42;1.80;;;1.70;;
16543;SDS011;8384;47.996;7.786;2023-12-20T09:44:08;2.00;;;1.80;;
16543;SDS011;8384;47.996;7.786;2023-12-20T09:46:43;2.00;;;1.80;;
16543;SDS011;8384;47.996;7.786;2023-12-20T09:49:09;1.90;;;1.77;;
16543;SDS011;8384;47.996;7.786;2023-12-20T09:51:35;2.40;;;2.20;;
16543;SDS011;8384;47.996;7.786;2023-12-20T09:54:02;2.77;;;2.40;;
16543;SDS011;8384;47.996;7.786;2023-12-20T09:56:29;2.97;;;1.87;;
16543;SDS011;8384;47.996;7.786;2023-12-20T09:58:54;2.50;;;2.30;;
16543;SDS011;8384;47.996;7.786;2023-12-20T10:01:20;3.00;;;2.33;;
16543;SDS011;8384;47.996;7.786;2023-12-20T10:03:46;2.33;;;2.13;;
16543;SDS011;8384;47.996;7.786;2023-12-20T10:06:11;2.87;;;2.67;;
16543;SDS011;8384;47.996;7.786;2023-12-20T10:08:37;3.83;;;2.20;;
16543;SDS011;8384;47.996;7.786;2023-12-20T10:11:03;3.43;;;2.30;;
16543;SDS011;8384;47.996;7.786;2023-12-20T10:13:29;2.20;;;2.00;;
16543;SDS011;8384;47.996;7.786;2023-12-20T10:15:54;2.40;;;2.20;;
16543;SDS011;8384;47.996;7.786;2023-12-20T10:18:20;2.47;;;2.00;;
16543;SDS011;8384;47.996;7.786;2023-12-20T10:20:46;3.87;;;2.20;;
16543;SDS011;8384;47.996;7.786;2023-12-20T10:23:11;3.47;;;2.17;;
16543;SDS011;8384;47.996;7.786;2023-12-20T10:25:38;2.37;;;2.00;;
16543;SDS011;8384;47.996;7.786;2023-12-20T10:28:11;2.30;;;2.00;;
16543;SDS011;8384;47.996;7.786;2023-12-20T10:30:44;2.43;;;1.90;;
16543;SDS011;8384;47.996;7.786;2023-12-20T10:33:10;2.63;;;2.10;;
16543;SDS011;8384;47.996;7.786;2023-12-20T10:35:36;2.43;;;1.80;;
16543;SDS011;8384;47.996;7.786;2023-12-20T10:38:03;2.73;;;1.90;;
16543;SDS011;8384;47.996;7.786;2023-12-20T10:40:30;2.00;;;1.80;;
16543;SDS011;8384;47.996;7.786;2023-12-20T10:42:56;3.30;;;2.20;;
16543;SDS011;8384;47.996;7.786;2023-12-20T10:45:23;2.90;;;1.83;;
16543;SDS011;8384;47.996;7.786;2023-12-20T10:47:48;2.30;;;1.80;;
16543;SDS011;8384;47.996;7.786;2023-12-20T10:50:15;3.30;;;2.07;;
16543;SDS011;8384;47.996;7.786;2023-12-20T10:52:40;2.40;;;2.00;;
16543;SDS011;8384;47.996;7.786;2023-12-20T10:55:07;2.47;;;1.97;;
16543;SDS011;8384;47.996;7.786;2023-12-20T10:57:33;2.20;;;1.77;;
16543;SDS011;8384;47.996;7.786;2023-12-20T11:00:01;2.40;;;1.73;;
16543;SDS011;8384;47.996;7.786;2023-12-20T11:02:33;3.13;;;1.60;;
16543;SDS011;8384;47.996;7.786;2023-12-20T11:08:02;3.43;;;1.67;;
16543;SDS011;8384;47.996;7.786;2023-12-20T11:10:58;4.37;;;3.43;;
16543;SDS011;8384;47.996;7.786;2023-12-20T11:13:55;11.63;;;7.30;;
16543;SDS011;8384;47.996;7.786;2023-12-20T11:16:25;4.03;;;2.23;;
16543;SDS011;8384;47.996;7.786;2023-12-20T11:18:50;2.00;;;1.80;;
16543;SDS011;8384;47.996;7.786;2023-12-20T11:21:16;1.70;;;1.60;;
16543;SDS011;8384;47.996;7.786;2023-12-20T11:23:41;2.70;;;1.70;;
16543;SDS011;8384;47.996;7.786;2023-12-20T11:26:07;1.80;;;1.60;;
16543;SDS011;8384;47.996;7.786;2023-12-20T11:28:33;4.20;;;1.93;;
16543;SDS011;8384;47.996;7.786;2023-12-20T11:30:58;3.70;;;1.37;;
16543;SDS011;8384;47.996;7.786;2023-12-20T11:33:26;3.27;;;1.33;;
16543;SDS011;8384;47.996;7.786;2023-12-20T11:35:58;4.87;;;1.67;;
16543;SDS011;8384;47.996;7.786;2023-12-20T11:38:25;4.27;;;1.40;;
16543;SDS011;8384;47.996;7.786;2023-12-20T11:40:51;2.77;;;1.60;;
16543;SDS011;8384;47.996;7.786;2023-12-20T11:43:32;3.10;;;1.17;;
16543;SDS011;8384;47.996;7.786;2023-12-20T11:46:07;3.77;;;1.30;;
16543;SDS011;8384;47.996;7.786;2023-12-20T11:48:39;4.50;;;1.20;;
16543;SDS011;8384;47.996;7.786;2023-12-20T11:51:11;4.83;;;1.30;;
16543;SDS011;8384;47.996;7.786;2023-12-20T11:53:38;4.20;;;1.50;;
16543;SDS011;8384;47.996;7.786;2023-12-20T11:56:05;4.97;;;1.53;;
16543;SDS011;8384;47.996;7.786;2023-12-20T11:58:31;1.93;;;0.90;;
16543;SDS011;8384;47.996;7.786;2023-12-20T12:00:57;4.60;;;1.23;;
16543;SDS011;8384;47.996;7.786;2023-12-20T12:03:23;4.07;;;1.33;;
16543;SDS011;8384;47.996;7.786;2023-12-20T12:05:49;3.53;;;1.10;;
16543;SDS011;8384;47.996;7.786;2023-12-20T12:08:14;3.57;;;0.90;;
16543;SDS011;8384;47.996;7.786;2023-12-20T12:10:40;4.77;;;1.40;;
16543;SDS011;8384;47.996;7.786;2023-12-20T12:13:05;2.77;;;1.30;;
16543;SDS011;8384;47.996;7.786;2023-12-20T12:15:31;3.43;;;1.30;;
16543;SDS011;8384;47.996;7.786;2023-12-20T12:17:56;2.60;;;1.20;;
16543;SDS011;8384;47.996;7.786;2023-12-20T12:20:22;3.63;;;1.07;;
16543;SDS011;8384;47.996;7.786;2023-12-20T12:23:01;1.43;;;1.03;;
16543;SDS011;8384;47.996;7.786;2023-12-20T12:25:31;3.63;;;1.37;;
16543;SDS011;8384;47.996;7.786;2023-12-20T12:28:00;5.30;;;1.10;;
16543;SDS011;8384;47.996;7.786;2023-12-20T12:30:25;2.73;;;1.40;;
16543;SDS011;8384;47.996;7.786;2023-12-20T12:32:51;2.93;;;1.30;;
16543;SDS011;8384;47.996;7.786;2023-12-20T12:35:17;3.17;;;1.20;;
16543;SDS011;8384;47.996;7.786;2023-12-20T12:37:43;2.70;;;1.30;;
16543;SDS011;8384;47.996;7.786;2023-12-20T12:40:09;3.37;;;1.10;;
16543;SDS011;8384;47.996;7.786;2023-12-20T12:42:36;3.20;;;1.10;;
16543;SDS011;8384;47.996;7.786;2023-12-20T12:45:02;2.30;;;1.03;;
16543;SDS011;8384;47.996;7.786;2023-12-20T12:47:27;2.50;;;0.90;;
16543;SDS011;8384;47.996;7.786;2023-12-20T12:49:53;4.53;;;1.27;;
16543;SDS011;8384;47.996;7.786;2023-12-20T12:52:18;4.47;;;1.17;;
16543;SDS011;8384;47.996;7.786;2023-12-20T12:54:44;3.70;;;1.13;;
16543;SDS011;8384;47.996;7.786;2023-12-20T12:57:10;3.13;;;0.83;;
16543;SDS011;8384;47.996;7.786;2023-12-20T12:59:36;2.47;;;0.80;;
16543;SDS011;8384;47.996;7.786;2023-12-20T13:02:01;4.53;;;0.90;;
16543;SDS011;8384;47.996;7.786;2023-12-20T13:04:27;3.37;;;1.20;;
16543;SDS011;8384;47.996;7.786;2023-12-20T13:06:52;2.13;;;0.93;;
16543;SDS011;8384;47.996;7.786;2023-12-20T13:09:17;2.10;;;0.67;;
16543;SDS011;8384;47.996;7.786;2023-12-20T13:11:44;2.23;;;0.90;;
16543;SDS011;8384;47.996;7.786;2023-12-20T13:14:09;2.57;;;1.10;;
16543;SDS011;8384;47.996;7.786;2023-12-20T13:16:39;1.77;;;0.77;;
16543;SDS011;8384;47.996;7.786;2023-12-20T13:19:04;3.00;;;1.27;;
16543;SDS011;8384;47.996;7.786;2023-12-20T13:21:30;3.53;;;1.00;;
16543;SDS011;8384;47.996;7.786;2023-12-20T13:23:55;2.77;;;1.20;;
16543;SDS011;8384;47.996;7.786;2023-12-20T13:26:21;2.83;;;1.00;;
16543;SDS011;8384;47.996;7.786;2023-12-20T13:28:46;2.67;;;1.03;;
16543;SDS011;8384;47.996;7.786;2023-12-20T13:31:11;2.50;;;0.90;;
16543;SDS011;8384;47.996;7.786;2023-12-20T13:33:37;1.83;;;0.80;;
16543;SDS011;8384;47.996;7.786;2023-12-20T13:36:02;2.10;;;0.93;;
16543;SDS011;8384;47.996;7.786;2023-12-20T13:38:29;5.23;;;1.00;;
16543;SDS011;8384;47.996;7.786;2023-12-20T13:40:54;2.70;;;1.00;;
16543;SDS011;8384;47.996;7.786;2023-12-20T13:43:20;2.57;;;1.10;;
16543;SDS011;8384;47.996;7.786;2023-12-20T13:45:47;4.10;;;1.13;;
16543;SDS011;8384;47.996;7.786;2023-12-20T13:48:12;3.40;;;1.20;;
16543;SDS011;8384;47.996;7.786;2023-12-20T13:50:38;3.23;;;0.90;;
16543;SDS011;8384;47.996;7.786;2023-12-20T13:53:03;4.53;;;1.03;;
16543;SDS011;8384;47.996;7.786;2023-12-20T13:55:29;4.17;;;1.40;;
16543;SDS011;8384;47.996;7.786;2023-12-20T13:57:55;4.27;;;1.13;;
16543;SDS011;8384;47.996;7.786;2023-12-20T14:00:21;3.33;;;1.00;;
16543;SDS011;8384;47.996;7.786;2023-12-20T14:02:47;3.33;;;1.10;;
16543;SDS011;8384;47.996;7.786;2023-12-20T14:05:12;1.97;;;0.97;;
16543;SDS011;8384;47.996;7.786;2023-12-20T14:07:39;3.63;;;1.37;;
16543;SDS011;8384;47.996;7.786;2023-12-20T14:10:05;3.13;;;1.23;;
16543;SDS011;8384;47.996;7.786;2023-12-20T14:12:31;4.10;;;1.63;;
16543;SDS011;8384;47.996;7.786;2023-12-20T14:15:00;5.67;;;1.97;;
16543;SDS011;8384;47.996;7.786;2023-12-20T14:17:25;3.03;;;1.90;;
16543;SDS011;8384;47.996;7.786;2023-12-20T14:19:51;3.83;;;1.70;;
16543;SDS011;8384;47.996;7.786;2023-12-20T14:22:16;7.80;;;1.97;;
16543;SDS011;8384;47.996;7.786;2023-12-20T14:24:42;3.23;;;1.70;;
16543;SDS011;8384;47.996;7.786;2023-12-20T14:27:07;3.57;;;1.60;;
16543;SDS011;8384;47.996;7.786;2023-12-20T14:29:34;5.93;;;1.83;;
16543;SDS011;8384;47.996;7.786;2023-12-20T14:31:59;3.13;;;1.63;;
16543;SDS011;8384;47.996;7.786;2023-12-20T14:34:27;4.57;;;1.87;;
16543;SDS011;8384;47.996;7.786;2023-12-20T14:36:52;2.53;;;1.40;;
16543;SDS011;8384;47.996;7.786;2023-12-20T14:39:18;6.07;;;1.50;;
16543;SDS011;8384;47.996;7.786;2023-12-20T14:41:43;3.40;;;1.50;;
16543;SDS011;8384;47.996;7.786;2023-12-20T14:44:09;5.60;;;1.53;;
16543;SDS011;8384;47.996;7.786;2023-12-20T14:46:35;3.70;;;1.50;;
16543;SDS011;8384;47.996;7.786;2023-12-20T14:49:00;2.87;;;1.10;;
16543;SDS011;8384;47.996;7.786;2023-12-20T14:51:27;5.87;;;1.30;;
16543;SDS011;8384;47.996;7.786;2023-12-20T14:53:53;3.57;;;1.30;;
16543;SDS011;8384;47.996;7.786;2023-12-20T14:56:18;4.90;;;1.37;;